Time;durP1;ratioP1;P1;durP2;ratioP2;P2;SDS_P1;SDS_P2;PMS_P1;PMS_P2;Temp;Humidity;BMP_temperature;BMP_pressure;BME280_temperature;BME280_humidity;BME280_pressure;Samples;Min_cycle;Max_cycle;Signal;HPM_P1;HPM_P2
2022/01/01 00:02:33;;;;;;;157.13;78.88;;;10.20;99.90;;;;;;5590680;22;15955441;-84
2022/01/01 00:08:18;;;;;;;110.78;45.65;;;10.20;99.90;;;;;;6281144;22;20034;-83
2022/01/01 00:11:35;;;;;;;108.80;46.58;;;10.00;99.90;;;;;;6198024;23;20159;-83
2022/01/01 00:15:19;;;;;;;112.03;44.38;;;10.40;99.90;;;;;;6218092;22;20015;-84
2022/01/01 00:22:14;;;;;;;108.47;41.85;;;10.10;99.90;;;;;;6069526;23;20074;-83
2022/01/01 00:29:10;;;;;;;;;;;;;;;;;;;;;
2022/01/01 00:32:11;;;;;;;119.65;50.85;;;9.60;99.90;;;;;;5901207;24;20017;-82
2022/01/01 00:35:00;;;;;;;99.28;37.55;;;10.20;99.90;;;;;;5901591;24;20032;-83
2022/01/01 00:41:50;;;;;;;80.20;29.00;;;10.20;99.90;;;;;;5901108;24;20169;-83
2022/01/01 00:44:57;;;;;;;133.73;57.08;;;10.20;99.90;;;;;;5901337;24;20021;-83
2022/01/01 00:47:50;;;;;;;93.05;30.95;;;10.00;99.90;;;;;;5900458;24;20402;-83
2022/01/01 00:51:18;;;;;;;88.65;32.38;;;10.20;99.90;;;;;;5875602;24;20088;-84
2022/01/01 00:53:40;;;;;;;85.07;31.02;;;10.60;99.90;;;;;;5899679;24;20044;-84
2022/01/01 02:15:40;;;;;;;131.90;42.65;;;9.90;99.90;;;;;;6273688;22;20032;-85
2022/01/01 02:19:29;;;;;;;130.23;45.97;;;10.00;99.90;;;;;;6235430;23;20051;-83
2022/01/01 02:22:18;;;;;;;135.45;48.30;;;9.90;99.90;;;;;;6062211;23;20015;-84
2022/01/01 02:25:13;;;;;;;152.95;55.67;;;10.10;99.90;;;;;;6059879;23;20437;-84
2022/01/01 02:30:54;;;;;;;167.55;53.13;;;10.30;99.90;;;;;;5924544;24;20021;-84
2022/01/01 02:33:31;;;;;;;157.30;54.50;;;10.40;99.90;;;;;;5903990;24;20295;-85
2022/01/01 02:35:58;;;;;;;147.98;51.75;;;9.70;99.90;;;;;;5903358;24;20504;-85
2022/01/01 02:50:10;;;;;;;143.90;44.83;;;10.20;99.90;;;;;;5949629;24;20341;-86
2022/01/01 07:23:10;;;;;;;95.47;26.35;;;10.40;99.90;;;;;;6241984;22;20024;-83
2022/01/01 07:26:09;;;;;;;114.10;28.02;;;10.50;99.90;;;;;;6241231;23;20440;-84
2022/01/01 07:56:12;;;;;;;;;;;;;;;;;;;;;
2022/01/01 08:02:36;;;;;;;104.38;29.95;;;10.30;99.90;;;;;;5764062;24;20100;-84
2022/01/01 08:05:09;;;;;;;99.78;29.83;;;10.60;99.90;;;;;;5760632;24;20015;-83
2022/01/01 08:07:34;;;;;;;103.22;31.25;;;10.70;99.90;;;;;;5852793;24;20290;-84
2022/01/01 08:10:00;;;;;;;106.97;31.13;;;10.60;99.90;;;;;;5905966;24;20123;-83
2022/01/01 08:12:26;;;;;;;123.28;33.50;;;10.80;99.90;;;;;;6046868;23;20029;-83
2022/01/01 08:14:56;;;;;;;111.28;33.25;;;11.70;99.90;;;;;;6157246;23;20013;-83
2022/01/01 08:17:23;;;;;;;107.22;32.67;;;10.80;99.90;;;;;;6131505;23;20399;-83
2022/01/01 08:19:49;;;;;;;113.72;33.97;;;11.20;99.90;;;;;;6132245;23;20119;-85
2022/01/01 08:22:14;;;;;;;110.32;34.53;;;10.90;99.90;;;;;;6131688;23;20116;-85
2022/01/01 08:24:41;;;;;;;105.03;34.97;;;11.00;99.90;;;;;;6155783;23;20041;-84
2022/01/01 08:27:07;;;;;;;122.78;35.40;;;11.00;99.90;;;;;;6240741;23;20016;-84
2022/01/01 08:29:33;;;;;;;112.30;34.65;;;11.00;99.90;;;;;;6218339;23;20070;-83
2022/01/01 08:31:59;;;;;;;112.78;35.25;;;11.60;99.90;;;;;;6241996;23;20012;-84
2022/01/01 08:34:25;;;;;;;105.00;37.03;;;11.10;99.90;;;;;;6242168;23;20019;-84
2022/01/01 08:36:51;;;;;;;114.05;36.63;;;11.10;99.90;;;;;;6216116;23;20087;-84
2022/01/01 08:39:16;;;;;;;113.03;37.03;;;11.50;99.90;;;;;;6241950;23;20117;-84
2022/01/01 08:41:44;;;;;;;114.45;36.45;;;11.20;99.90;;;;;;6242563;23;20455;-85
2022/01/01 08:45:18;;;;;;;;;;;;;;;;;;;;;
2022/01/01 08:48:08;;;;;;;103.60;34.50;;;10.70;99.90;;;;;;6152571;23;20032;-85
2022/01/01 08:58:55;;;;;;;107.82;34.22;;;11.20;99.90;;;;;;6007142;23;20103;-82
2022/01/01 09:05:25;;;;;;;89.50;34.15;;;11.20;99.90;;;;;;5950528;24;20056;-84
2022/01/01 09:08:21;;;;;;;93.32;33.00;;;11.50;99.90;;;;;;5926727;24;20025;-84
2022/01/01 09:10:49;;;;;;;82.30;32.75;;;11.30;99.90;;;;;;5927369;24;20096;-83
2022/01/01 09:13:16;;;;;;;86.47;32.17;;;11.50;99.90;;;;;;5951528;24;20020;-84
2022/01/01 09:15:41;;;;;;;81.18;31.35;;;11.50;99.90;;;;;;5950315;24;20073;-80
2022/01/01 09:18:07;;;;;;;82.97;32.50;;;11.50;99.90;;;;;;5927947;24;20024;-81
2022/01/01 09:20:33;;;;;;;73.65;30.80;;;11.80;99.90;;;;;;5952268;23;20095;-80
2022/01/01 09:22:58;;;;;;;79.00;31.27;;;11.60;99.90;;;;;;5905220;24;20307;-81
2022/01/01 09:25:25;;;;;;;76.82;31.42;;;11.70;99.90;;;;;;6035231;23;20735;-83
2022/01/01 09:27:51;;;;;;;70.50;30.55;;;11.70;99.90;;;;;;6049409;23;20014;-82
2022/01/01 09:30:17;;;;;;;81.70;31.55;;;11.70;99.90;;;;;;6096856;23;20020;-81
2022/01/01 09:32:42;;;;;;;75.72;31.50;;;11.80;99.90;;;;;;6122357;23;20014;-80
2022/01/01 09:35:08;;;;;;;75.72;32.03;;;11.80;99.90;;;;;;6096739;23;20022;-78
2022/01/01 09:37:34;;;;;;;65.50;27.83;;;11.80;99.90;;;;;;6171889;23;20023;-78
2022/01/01 09:40:01;;;;;;;78.38;30.48;;;11.90;99.90;;;;;;6216424;23;20012;-80
2022/01/01 09:42:26;;;;;;;58.83;27.85;;;11.80;99.90;;;;;;6241970;23;20044;-80
2022/01/01 09:44:52;;;;;;;68.22;29.48;;;11.80;99.90;;;;;;6216584;23;20023;-78
2022/01/01 09:47:19;;;;;;;62.95;26.88;;;11.90;99.90;;;;;;6240070;23;20016;-78
2022/01/01 09:49:47;;;;;;;63.47;26.92;;;11.90;99.90;;;;;;6241200;23;20091;-79
2022/01/01 09:52:14;;;;;;;59.38;25.05;;;11.90;99.90;;;;;;6216605;23;20008;-78
2022/01/01 09:54:41;;;;;;;59.30;25.15;;;12.00;99.90;;;;;;6243680;23;20018;-77
2022/01/01 09:57:07;;;;;;;57.92;24.17;;;12.10;99.90;;;;;;6240596;23;20078;-78
2022/01/01 09:59:33;;;;;;;51.08;22.83;;;12.10;99.90;;;;;;6241251;23;20008;-78
2022/01/01 10:01:59;;;;;;;49.90;22.20;;;12.10;99.90;;;;;;6240086;23;20048;-76
2022/01/01 10:04:25;;;;;;;48.35;20.45;;;12.10;99.90;;;;;;6242000;23;20020;-76
2022/01/01 10:07:05;;;;;;;46.55;20.17;;;12.10;99.90;;;;;;6216345;23;20008;-75
2022/01/01 10:09:36;;;;;;;44.60;18.77;;;12.20;99.90;;;;;;6215636;23;20023;-78
2022/01/01 10:12:05;;;;;;;44.92;19.40;;;12.20;99.90;;;;;;6241858;23;20008;-78
2022/01/01 10:14:42;;;;;;;39.80;18.30;;;12.20;99.90;;;;;;6216018;23;20094;-81
2022/01/01 10:17:17;;;;;;;43.33;17.95;;;12.20;99.90;;;;;;6216760;23;20020;-83
2022/01/01 10:19:43;;;;;;;41.03;16.45;;;12.20;99.90;;;;;;6241864;23;20017;-82
2022/01/01 10:22:13;;;;;;;43.47;16.90;;;12.20;99.90;;;;;;6215643;23;20047;-81
2022/01/01 10:27:44;;;;;;;40.35;14.38;;;12.30;99.90;;;;;;6240207;23;20020;-83
2022/01/01 10:30:27;;;;;;;40.17;15.23;;;12.20;99.90;;;;;;6241845;23;20016;-84
2022/01/01 10:33:16;;;;;;;40.30;15.18;;;12.20;99.90;;;;;;6217679;23;20424;-84
2022/01/01 10:35:47;;;;;;;38.08;15.43;;;12.30;99.90;;;;;;6247442;23;20016;-82
2022/01/01 10:38:35;;;;;;;41.60;16.17;;;12.20;99.90;;;;;;6249603;22;20088;-84
2022/01/01 10:45:26;;;;;;;33.78;14.07;;;12.00;99.90;;;;;;6128784;23;20140;-83
2022/01/01 10:48:18;;;;;;;34.45;14.45;;;12.70;99.90;;;;;;6130061;23;20180;-84
2022/01/01 10:51:34;;;;;;;33.35;14.52;;;12.30;99.90;;;;;;6157992;23;20021;-82
2022/01/01 10:54:08;;;;;;;40.75;14.85;;;12.30;99.90;;;;;;6072453;23;20175;-83
2022/01/01 11:11:57;;;;;;;;;;;;;;;;;;;;;
2022/01/01 11:15:23;;;;;;;34.58;12.15;;;12.70;99.90;;;;;;5711780;25;20029;-81
2022/01/01 11:33:19;;;;;;;;;;;;;;;;;;;;;
2022/01/01 11:36:43;;;;;;;29.45;9.98;;;12.60;99.90;;;;;;6200523;23;20067;-81
2022/01/01 11:39:34;;;;;;;22.50;10.23;;;12.40;99.90;;;;;;6099171;23;20037;-81
2022/01/01 11:42:12;;;;;;;24.52;10.63;;;12.60;99.90;;;;;;6096231;23;20423;-78
2022/01/01 11:44:41;;;;;;;25.08;8.95;;;12.70;99.90;;;;;;6095592;23;20093;-81
2022/01/01 11:47:31;;;;;;;22.73;9.60;;;12.70;99.90;;;;;;6095222;23;20018;-84
2022/01/01 11:50:56;;;;;;;23.98;8.48;;;12.80;99.90;;;;;;6063503;23;20348;-83
2022/01/01 11:53:35;;;;;;;26.42;8.68;;;12.80;99.90;;;;;;6014568;23;20109;-82
2022/01/01 11:57:05;;;;;;;24.02;8.68;;;12.80;99.90;;;;;;6037993;23;20015;-82
2022/01/01 11:59:37;;;;;;;25.90;8.27;;;12.80;99.90;;;;;;5900350;24;20029;-82
2022/01/01 12:02:26;;;;;;;23.85;8.15;;;13.60;99.90;;;;;;5921219;24;20030;-82
2022/01/01 12:05:07;;;;;;;19.60;7.57;;;12.80;99.90;;;;;;5900369;24;20206;-80
2022/01/01 12:08:29;;;;;;;21.30;7.50;;;12.80;99.90;;;;;;5899959;24;20014;-82
2022/01/01 12:15:48;;;;;;;14.70;6.10;;;12.60;99.90;;;;;;5789704;24;20024;-83
2022/01/01 12:18:41;;;;;;;16.45;7.15;;;12.90;99.90;;;;;;5664476;25;20021;-86
2022/01/01 12:21:27;;;;;;;15.50;6.90;;;13.50;99.90;;;;;;5665399;24;20152;-81
2022/01/01 12:24:08;;;;;;;20.98;7.05;;;12.80;99.90;;;;;;5665792;25;20021;-81
2022/01/01 12:26:53;;;;;;;17.52;7.25;;;12.70;99.90;;;;;;5691148;25;20092;-85
2022/01/01 12:29:42;;;;;;;20.17;6.85;;;12.80;99.90;;;;;;5711306;25;20411;-83
2022/01/01 12:33:15;;;;;;;17.95;7.18;;;12.80;99.90;;;;;;5709528;24;20118;-81
2022/01/01 12:52:01;;;;;;;;;;;;;;;;;;;;;
2022/01/01 12:54:19;;;;;;;15.88;6.55;;;12.90;99.90;;;;;;5831676;24;20025;-87
2022/01/01 13:04:04;;;;;;;18.35;5.95;;;12.60;99.90;;;;;;5900682;24;20073;-83
2022/01/01 13:06:59;;;;;;;19.55;6.53;;;13.10;99.90;;;;;;5879156;24;20115;-84
2022/01/01 13:09:28;;;;;;;16.52;6.25;;;12.60;99.90;;;;;;5913328;24;20449;-83
2022/01/01 13:12:40;;;;;;;18.40;6.20;;;12.70;99.90;;;;;;5979556;24;20031;-84
2022/01/01 13:15:13;;;;;;;13.35;5.95;;;12.70;99.90;;;;;;5956689;23;20104;-82
2022/01/01 13:17:40;;;;;;;16.73;6.15;;;12.60;99.90;;;;;;6011217;23;20051;-80
2022/01/01 13:20:29;;;;;;;16.40;5.60;;;12.30;99.90;;;;;;6012225;23;20026;-80
2022/01/01 13:23:04;;;;;;;15.48;5.82;;;13.40;99.90;;;;;;5988128;23;20091;-80
2022/01/01 13:25:33;;;;;;;18.38;6.28;;;12.40;99.90;;;;;;5989132;23;20019;-78
2022/01/01 13:28:02;;;;;;;15.35;6.45;;;13.20;99.90;;;;;;6011809;23;20019;-81
2022/01/01 13:30:31;;;;;;;18.80;6.55;;;13.10;99.90;;;;;;6098653;23;20528;-80
2022/01/01 13:33:01;;;;;;;18.08;6.43;;;13.00;99.90;;;;;;6184429;23;20017;-81
2022/01/01 13:35:29;;;;;;;13.02;5.72;;;12.60;99.90;;;;;;6145282;23;20029;-80
2022/01/01 13:38:00;;;;;;;18.52;5.93;;;12.70;99.90;;;;;;6211957;23;20457;-81
2022/01/01 13:40:26;;;;;;;12.27;5.93;;;12.90;99.90;;;;;;6185867;23;20071;-81
2022/01/01 13:53:43;;;;;;;12.93;6.43;;;12.80;99.90;;;;;;6031948;23;20147;-82
2022/01/01 13:56:14;;;;;;;15.40;5.95;;;12.80;99.90;;;;;;6035123;23;20424;-81
2022/01/01 13:58:48;;;;;;;16.55;6.20;;;12.80;99.90;;;;;;6011592;23;20153;-79
2022/01/01 14:01:15;;;;;;;16.77;6.22;;;12.80;99.90;;;;;;5988126;23;20050;-80
2022/01/01 14:03:41;;;;;;;15.35;6.88;;;12.80;99.90;;;;;;5987749;23;20104;-79
2022/01/01 14:06:10;;;;;;;16.92;6.78;;;12.90;99.90;;;;;;5987412;23;20015;-80
2022/01/01 14:08:37;;;;;;;14.90;6.47;;;12.90;99.90;;;;;;5986880;23;20023;-80
2022/01/01 14:16:03;;;;;;;;;;;;;;;;;;;;;
2022/01/01 14:22:54;;;;;;;16.45;7.13;;;12.80;99.90;;;;;;5972004;23;20012;-82
2022/01/01 14:25:23;;;;;;;15.40;7.22;;;12.80;99.90;;;;;;5962500;23;20016;-79
2022/01/01 14:27:49;;;;;;;18.45;7.45;;;12.80;99.90;;;;;;6007128;23;20075;-78
2022/01/01 14:30:15;;;;;;;15.40;7.50;;;12.70;99.90;;;;;;6034355;23;20325;-78
2022/01/01 14:32:42;;;;;;;13.65;7.25;;;12.70;99.90;;;;;;6061157;23;20339;-80
2022/01/01 14:35:08;;;;;;;14.50;7.10;;;12.70;99.90;;;;;;6035947;23;20038;-79
2022/01/01 14:37:35;;;;;;;15.13;6.82;;;12.70;99.90;;;;;;6038203;23;20109;-79
2022/01/01 14:40:01;;;;;;;15.18;6.72;;;12.50;99.90;;;;;;6063485;23;20034;-80
2022/01/01 14:42:26;;;;;;;19.42;7.35;;;12.60;99.90;;;;;;6063184;23;20089;-80
2022/01/01 14:49:17;;;;;;;18.00;7.63;;;12.70;99.90;;;;;;6088620;23;20029;-83
2022/01/01 14:52:29;;;;;;;14.40;7.22;;;12.30;99.90;;;;;;6121467;23;20034;-84
2022/01/01 14:55:08;;;;;;;17.90;7.07;;;12.30;99.90;;;;;;6184762;23;20059;-80
2022/01/01 14:58:33;;;;;;;17.02;7.18;;;12.20;99.90;;;;;;6186687;23;20436;-81
2022/01/01 15:06:02;;;;;;;15.45;6.88;;;12.20;99.90;;;;;;6034839;22;20031;-82
2022/01/01 15:09:15;;;;;;;17.35;7.30;;;12.10;99.90;;;;;;6185103;23;20093;-81
2022/01/01 15:19:30;;;;;;;17.30;7.88;;;12.00;99.90;;;;;;6034932;23;20107;-79
2022/01/01 15:22:09;;;;;;;18.90;8.80;;;12.20;99.90;;;;;;5986966;23;20104;-80
2022/01/01 15:24:42;;;;;;;15.55;7.80;;;12.00;99.90;;;;;;5988035;23;20012;-79
2022/01/01 15:27:11;;;;;;;15.88;7.60;;;12.40;99.90;;;;;;6009009;23;20033;-80
2022/01/01 15:35:23;;;;;;;17.38;7.63;;;12.00;99.90;;;;;;6008138;23;20023;-80
2022/01/01 15:38:35;;;;;;;14.30;7.53;;;11.90;99.90;;;;;;5983281;23;20019;-83
2022/01/01 15:41:30;;;;;;;21.83;8.32;;;12.00;99.90;;;;;;6007357;23;20034;-84
2022/01/01 15:44:18;;;;;;;15.63;7.65;;;11.80;99.90;;;;;;6003543;23;20158;-82
2022/01/01 15:46:45;;;;;;;15.13;7.80;;;12.60;99.90;;;;;;5955442;23;20147;-80
2022/01/01 15:49:25;;;;;;;13.45;7.18;;;11.70;99.90;;;;;;5994971;23;20946;-81
2022/01/01 15:52:02;;;;;;;18.88;8.50;;;11.70;99.90;;;;;;6007653;23;20050;-81
2022/01/01 15:54:31;;;;;;;14.77;7.72;;;11.60;99.90;;;;;;6007787;23;20417;-88
2022/01/01 15:57:14;;;;;;;21.48;8.30;;;11.90;99.90;;;;;;6092199;23;20448;-81
2022/01/01 16:00:14;;;;;;;;;;;;;;;;;;;;;
2022/01/01 16:02:49;;;;;;;17.60;7.55;;;11.60;99.90;;;;;;6146910;23;20024;-81
2022/01/01 16:05:42;;;;;;;14.45;7.70;;;11.50;99.90;;;;;;6092132;23;20014;-79
2022/01/01 16:08:22;;;;;;;16.23;8.20;;;11.50;99.90;;;;;;6086904;23;20436;-78
2022/01/01 16:10:51;;;;;;;21.58;8.30;;;11.50;99.90;;;;;;6121975;23;20022;-80
2022/01/01 16:17:38;;;;;;;16.83;7.88;;;11.40;99.90;;;;;;6212345;23;20011;-85
2022/01/01 16:20:37;;;;;;;15.40;7.93;;;11.50;99.90;;;;;;6161509;23;20131;-87
2022/01/01 16:23:48;;;;;;;15.93;7.57;;;11.40;99.90;;;;;;6164249;23;20020;-86
2022/01/01 16:27:02;;;;;;;15.90;8.32;;;11.50;99.90;;;;;;6188433;23;20351;-84
2022/01/01 16:29:28;;;;;;;14.05;8.05;;;11.30;99.90;;;;;;6069727;23;20090;-79
2022/01/01 16:32:08;;;;;;;17.05;8.60;;;12.40;99.90;;;;;;6044870;23;20018;-79
2022/01/01 16:34:34;;;;;;;20.48;8.40;;;11.60;99.90;;;;;;6070068;23;20041;-79
2022/01/01 16:40:37;;;;;;;12.95;7.75;;;11.20;99.90;;;;;;6067125;23;20042;-81
2022/01/01 16:43:08;;;;;;;18.40;8.30;;;11.60;99.90;;;;;;6068511;23;20025;-84
2022/01/01 16:46:12;;;;;;;17.52;7.82;;;11.60;99.90;;;;;;6092839;23;20018;-84
2022/01/01 16:49:13;;;;;;;20.20;8.80;;;11.80;99.90;;;;;;6046030;23;20073;-83
2022/01/01 16:51:55;;;;;;;17.67;7.80;;;11.70;99.90;;;;;;6044330;23;20014;-85
2022/01/01 16:58:08;;;;;;;16.38;7.05;;;11.70;99.90;;;;;;6093914;23;20025;-85
2022/01/01 17:01:21;;;;;;;17.08;7.30;;;11.70;99.90;;;;;;6182063;23;20059;-82
2022/01/01 17:04:13;;;;;;;14.75;7.10;;;11.70;99.90;;;;;;6188070;23;20404;-85
2022/01/01 17:07:18;;;;;;;17.20;7.45;;;12.30;99.90;;;;;;6163682;23;20361;-81
2022/01/01 17:09:53;;;;;;;19.73;7.60;;;11.70;99.90;;;;;;6181585;23;20099;-80
2022/01/01 17:12:22;;;;;;;14.88;7.40;;;11.70;99.90;;;;;;6183575;23;20020;-85
2022/01/01 17:15:12;;;;;;;13.88;7.35;;;11.70;99.90;;;;;;6182216;23;20016;-81
2022/01/01 17:18:33;;;;;;;16.55;7.30;;;11.70;99.90;;;;;;6149869;23;20098;-82
2022/01/01 17:21:17;;;;;;;10.93;7.18;;;11.70;99.90;;;;;;6070887;23;20045;-83
2022/01/01 17:24:17;;;;;;;14.02;6.28;;;11.70;99.90;;;;;;6101836;23;20104;-82
2022/01/01 17:31:25;;;;;;;15.15;6.68;;;11.70;99.90;;;;;;6150461;23;20017;-82
2022/01/01 17:34:23;;;;;;;14.75;7.20;;;11.70;99.90;;;;;;6125170;23;20014;-82
2022/01/01 17:41:16;;;;;;;14.90;7.07;;;11.70;99.90;;;;;;6056041;23;20447;-82
2022/01/01 17:43:48;;;;;;;14.15;6.65;;;11.70;99.90;;;;;;5898811;24;20021;-81
2022/01/01 17:46:27;;;;;;;12.95;6.75;;;11.70;99.90;;;;;;5921355;24;20025;-81
2022/01/01 18:06:19;;;;;;;11.55;6.35;;;11.70;99.90;;;;;;5953388;22;6787044;-79
2022/01/01 18:09:50;;;;;;;;;;;;;;;;;;;;;
2022/01/01 18:17:00;;;;;;;15.00;6.63;;;11.60;99.90;;;;;;6069090;23;20051;-79
2022/01/01 18:19:49;;;;;;;;;;;11.70;99.90;;;;;;6043119;23;20067;-79
2022/01/01 18:42:04;;;;;;;10.95;5.72;;;11.70;99.90;;;;;;5901865;24;20020;-82
2022/01/01 18:44:30;;;;;;;10.80;5.78;;;12.30;99.90;;;;;;5856737;24;20053;-84
2022/01/01 18:47:00;;;;;;;12.90;5.85;;;11.70;99.90;;;;;;5938419;23;20019;-80
2022/01/01 18:49:27;;;;;;;11.35;5.93;;;11.70;99.90;;;;;;6012163;23;20016;-83
2022/01/01 18:51:54;;;;;;;12.05;6.25;;;11.70;99.90;;;;;;5966110;23;20024;-83
2022/01/01 18:54:25;;;;;;;11.93;5.90;;;11.70;99.90;;;;;;5989703;23;20022;-81
2022/01/01 18:57:25;;;;;;;10.77;6.15;;;11.70;99.90;;;;;;5987844;23;20027;-83
2022/01/01 18:59:57;;;;;;;10.23;5.70;;;11.70;99.90;;;;;;5986682;23;20015;-84
2022/01/01 19:02:28;;;;;;;10.88;5.70;;;11.70;99.90;;;;;;6010660;23;20026;-83
2022/01/01 19:04:56;;;;;;;11.82;5.40;;;11.60;99.90;;;;;;6043806;23;20025;-84
2022/01/01 19:07:23;;;;;;;10.48;5.55;;;11.70;99.90;;;;;;6169738;23;20029;-83
2022/01/01 19:09:52;;;;;;;10.15;6.03;;;11.70;99.90;;;;;;6157007;23;20052;-82
2022/01/01 19:12:24;;;;;;;13.45;5.45;;;11.70;99.90;;;;;;6156628;23;20430;-83
2022/01/01 19:14:59;;;;;;;9.82;5.68;;;11.70;99.90;;;;;;6132079;23;20013;-86
2022/01/01 19:17:30;;;;;;;13.35;6.07;;;11.70;99.90;;;;;;6155690;23;20041;-81
2022/01/01 19:19:58;;;;;;;16.75;5.35;;;12.30;99.90;;;;;;6157505;23;20016;-82
2022/01/01 19:22:25;;;;;;;10.52;5.30;;;11.70;99.90;;;;;;6157785;23;20061;-82
2022/01/01 19:24:53;;;;;;;10.27;5.15;;;11.80;99.90;;;;;;6107579;23;20309;-82
2022/01/01 19:27:22;;;;;;;11.35;5.40;;;11.80;99.90;;;;;;6160816;23;20370;-81
2022/01/01 19:29:50;;;;;;;8.70;5.28;;;11.80;99.90;;;;;;6181139;23;20044;-80
2022/01/01 19:32:20;;;;;;;8.35;4.88;;;11.80;99.90;;;;;;6180958;23;20016;-80
2022/01/01 19:34:48;;;;;;;10.60;5.20;;;11.80;99.90;;;;;;6166378;23;20012;-82
2022/01/01 19:37:14;;;;;;;8.88;5.07;;;12.10;99.90;;;;;;6175331;23;20012;-81
2022/01/01 19:39:50;;;;;;;11.23;5.18;;;11.90;99.90;;;;;;6157729;23;20038;-82
2022/01/01 19:46:02;;;;;;;8.88;4.88;;;11.80;99.90;;;;;;6061705;23;20034;-82
2022/01/01 19:48:36;;;;;;;11.23;5.30;;;11.90;99.90;;;;;;6038587;23;20476;-82
2022/01/01 19:51:01;;;;;;;11.00;5.47;;;11.80;99.90;;;;;;6062344;23;20019;-82
2022/01/01 19:53:27;;;;;;;8.20;4.93;;;11.80;99.90;;;;;;6037873;23;20010;-82
2022/01/01 19:55:53;;;;;;;10.23;5.05;;;11.70;99.90;;;;;;6062005;23;20050;-80
2022/01/01 19:58:19;;;;;;;12.73;5.47;;;11.80;99.90;;;;;;6038875;23;20055;-82
2022/01/01 20:00:45;;;;;;;10.20;5.13;;;11.80;99.90;;;;;;6038896;23;20089;-82
2022/01/01 20:03:17;;;;;;;10.68;5.10;;;11.80;99.90;;;;;;6016402;23;20373;-82
2022/01/01 20:05:44;;;;;;;9.13;5.20;;;11.80;99.90;;;;;;6038129;23;20035;-83
2022/01/01 20:08:10;;;;;;;10.00;4.90;;;11.80;99.90;;;;;;6014874;23;20022;-82
2022/01/01 20:10:36;;;;;;;10.57;5.15;;;11.80;99.90;;;;;;6062454;23;20026;-82
2022/01/01 20:13:03;;;;;;;7.22;4.95;;;11.80;99.90;;;;;;6015206;23;20026;-83
2022/01/01 20:15:30;;;;;;;11.70;5.50;;;11.80;99.90;;;;;;6037777;23;20059;-82
2022/01/01 20:17:56;;;;;;;9.55;5.43;;;11.80;99.90;;;;;;6013838;23;20315;-83
2022/01/01 20:20:22;;;;;;;9.23;5.43;;;11.80;99.90;;;;;;6014595;23;20018;-82
2022/01/01 20:22:50;;;;;;;8.35;5.28;;;11.80;99.90;;;;;;6154242;23;20009;-82
2022/01/01 20:25:16;;;;;;;13.20;5.55;;;11.90;99.90;;;;;;6171481;23;20009;-82
2022/01/01 20:27:41;;;;;;;11.18;5.55;;;11.90;99.90;;;;;;6157448;23;20024;-81
2022/01/01 20:30:08;;;;;;;9.63;5.53;;;12.60;99.90;;;;;;6207115;23;20004;-81
2022/01/01 20:32:34;;;;;;;11.88;5.68;;;12.00;99.90;;;;;;6181108;23;20027;-83
2022/01/01 20:34:59;;;;;;;9.93;5.32;;;11.90;99.90;;;;;;6137309;23;20052;-82
2022/01/01 20:37:25;;;;;;;9.07;4.93;;;11.90;99.90;;;;;;6156271;23;20024;-84
2022/01/01 20:39:51;;;;;;;9.65;5.47;;;12.20;99.90;;;;;;6156003;23;20045;-83
2022/01/01 20:42:18;;;;;;;10.95;5.50;;;12.40;99.90;;;;;;6155976;23;20345;-83
2022/01/01 20:44:45;;;;;;;10.98;5.60;;;11.90;99.90;;;;;;6182999;23;20009;-81
2022/01/01 20:47:12;;;;;;;9.55;5.57;;;12.40;99.90;;;;;;6129476;23;20009;-81
2022/01/01 20:49:38;;;;;;;9.73;5.55;;;11.90;99.90;;;;;;6130846;23;20019;-83
2022/01/01 20:52:06;;;;;;;11.55;5.28;;;11.90;99.90;;;;;;6154742;23;20453;-83
2022/01/01 20:54:32;;;;;;;10.15;5.90;;;11.90;99.90;;;;;;6132595;23;20374;-82
2022/01/01 20:56:58;;;;;;;12.75;5.88;;;11.90;99.90;;;;;;6132117;23;20282;-81
2022/01/01 20:59:23;;;;;;;12.63;5.57;;;11.80;99.90;;;;;;6155507;23;20099;-82
2022/01/01 21:01:58;;;;;;;11.10;5.82;;;11.80;99.90;;;;;;6130233;23;20083;-83
2022/01/01 21:04:31;;;;;;;12.60;5.82;;;11.70;99.90;;;;;;6156495;23;20017;-83
2022/01/01 21:07:00;;;;;;;11.73;5.57;;;11.70;99.90;;;;;;6132050;23;20569;-83
2022/01/01 21:09:26;;;;;;;9.68;5.30;;;12.20;99.90;;;;;;6098356;23;20022;-82
2022/01/01 21:11:53;;;;;;;9.32;5.25;;;11.80;99.90;;;;;;6122891;23;20108;-81
2022/01/01 21:14:22;;;;;;;12.57;5.30;;;11.70;99.90;;;;;;6097740;23;20092;-83
2022/01/01 21:16:52;;;;;;;12.13;5.95;;;11.70;99.90;;;;;;6097120;23;20354;-80
2022/01/01 21:19:20;;;;;;;12.82;5.85;;;12.40;99.90;;;;;;6098715;23;20010;-81
2022/01/01 21:21:46;;;;;;;10.55;5.63;;;11.70;99.90;;;;;;6097647;23;20057;-81
2022/01/01 21:24:11;;;;;;;11.10;5.30;;;11.60;99.90;;;;;;6098019;23;20010;-81
2022/01/01 21:26:37;;;;;;;10.73;5.78;;;11.60;99.90;;;;;;6121204;23;20085;-82
2022/01/01 21:29:06;;;;;;;8.40;5.57;;;11.60;99.90;;;;;;6096798;23;20097;-82
2022/01/01 21:31:31;;;;;;;10.90;5.65;;;11.60;99.90;;;;;;6119142;23;20030;-82
2022/01/01 21:33:57;;;;;;;9.90;5.47;;;11.60;99.90;;;;;;6121167;23;20010;-82
2022/01/01 21:36:22;;;;;;;11.57;6.03;;;11.50;99.90;;;;;;6096802;23;20498;-84
2022/01/01 21:38:48;;;;;;;9.48;5.75;;;11.60;99.90;;;;;;6096766;23;20013;-83
2022/01/01 21:41:14;;;;;;;9.25;5.65;;;11.60;99.90;;;;;;6121498;23;20018;-84
2022/01/01 21:43:43;;;;;;;11.85;5.80;;;11.60;99.90;;;;;;6120797;23;20044;-84
2022/01/01 21:46:20;;;;;;;13.85;6.00;;;11.60;99.90;;;;;;6120520;23;20042;-83
2022/01/01 21:48:46;;;;;;;9.75;5.55;;;11.60;99.90;;;;;;6097279;23;20522;-83
2022/01/01 21:51:17;;;;;;;12.30;5.95;;;11.50;99.90;;;;;;6096978;23;20362;-83
2022/01/01 21:53:46;;;;;;;11.63;5.57;;;11.50;99.90;;;;;;6097387;23;20161;-83
2022/01/01 21:56:13;;;;;;;10.90;5.65;;;11.70;99.90;;;;;;6121108;23;20013;-83
2022/01/01 21:58:39;;;;;;;10.05;5.53;;;11.70;99.90;;;;;;6120671;23;20010;-83
2022/01/01 22:01:04;;;;;;;8.07;5.60;;;11.60;99.90;;;;;;6120473;23;20018;-82
2022/01/01 22:03:30;;;;;;;11.23;6.05;;;11.50;99.90;;;;;;6120719;23;20073;-83
2022/01/01 22:05:56;;;;;;;8.00;5.45;;;11.50;99.90;;;;;;6120956;23;20038;-82
2022/01/01 22:08:22;;;;;;;9.88;5.00;;;11.40;99.90;;;;;;6122094;23;20061;-83
2022/01/01 22:10:48;;;;;;;9.63;5.70;;;11.40;99.90;;;;;;6072194;23;20069;-81
2022/01/01 22:13:13;;;;;;;9.70;5.43;;;11.60;99.90;;;;;;6096589;23;20058;-83
2022/01/01 22:15:40;;;;;;;11.15;6.15;;;11.40;99.90;;;;;;6095533;23;20010;-82
2022/01/01 22:18:06;;;;;;;11.90;6.22;;;11.40;99.90;;;;;;6121273;23;20342;-83
2022/01/01 22:20:42;;;;;;;8.43;5.53;;;11.40;99.90;;;;;;6097721;23;20105;-83
2022/01/01 22:23:08;;;;;;;15.13;6.00;;;11.40;99.90;;;;;;6123517;23;20086;-85
2022/01/01 22:25:58;;;;;;;21.33;6.47;;;11.40;99.90;;;;;;6122886;23;20104;-84
2022/01/01 22:28:27;;;;;;;10.90;5.70;;;11.40;99.90;;;;;;6099150;23;20021;-81
2022/01/01 22:30:52;;;;;;;12.98;5.97;;;11.40;99.90;;;;;;6097405;23;20101;-83
2022/01/01 22:33:18;;;;;;;14.00;5.93;;;11.80;99.90;;;;;;6122560;23;20014;-84
2022/01/01 22:39:25;;;;;;;11.23;5.70;;;11.40;99.90;;;;;;5951960;24;20065;-83
2022/01/01 22:41:50;;;;;;;17.10;6.50;;;11.30;99.90;;;;;;5928403;24;20020;-83
2022/01/01 22:44:16;;;;;;;10.93;6.40;;;11.40;99.90;;;;;;5951819;24;20024;-83
2022/01/01 22:46:42;;;;;;;13.90;6.45;;;11.80;99.90;;;;;;5904348;24;20465;-82
2022/01/01 22:49:08;;;;;;;10.90;5.93;;;11.40;99.90;;;;;;5929008;24;20031;-82
2022/01/01 22:51:37;;;;;;;11.95;6.28;;;11.30;99.90;;;;;;5951741;24;20396;-83
2022/01/01 22:54:04;;;;;;;12.95;6.00;;;11.40;99.90;;;;;;5928956;23;20078;-82
2022/01/01 22:56:33;;;;;;;13.80;6.45;;;11.30;99.90;;;;;;5928988;24;20013;-85
2022/01/01 22:59:01;;;;;;;15.50;6.50;;;11.40;99.90;;;;;;5952221;24;20016;-83
2022/01/01 23:01:30;;;;;;;14.63;6.60;;;11.40;99.90;;;;;;5927324;24;20027;-83
2022/01/01 23:03:56;;;;;;;15.38;6.90;;;11.40;99.90;;;;;;5928093;24;20062;-83
2022/01/01 23:06:22;;;;;;;15.55;7.30;;;11.50;99.90;;;;;;5915272;24;20020;-83
2022/01/01 23:08:48;;;;;;;14.70;6.55;;;11.30;99.90;;;;;;5955861;24;20028;-82
2022/01/01 23:11:14;;;;;;;12.85;6.68;;;11.30;99.90;;;;;;5955357;24;20022;-81
2022/01/01 23:13:41;;;;;;;14.15;6.35;;;11.30;99.90;;;;;;5967877;23;20424;-82
2022/01/01 23:16:16;;;;;;;15.20;7.30;;;11.30;99.90;;;;;;6143114;23;20312;-82
2022/01/01 23:18:55;;;;;;;11.65;6.28;;;11.30;99.90;;;;;;6128520;23;20160;-83
2022/01/01 23:21:23;;;;;;;19.30;6.97;;;11.20;99.90;;;;;;6128075;23;20715;-81
2022/01/01 23:23:50;;;;;;;13.98;6.82;;;11.20;99.90;;;;;;6151975;23;20013;-83
2022/01/01 23:26:27;;;;;;;15.57;6.50;;;11.10;99.90;;;;;;6152960;23;20021;-82
2022/01/01 23:28:58;;;;;;;13.57;6.82;;;11.20;99.90;;;;;;6128166;23;20033;-83
2022/01/01 23:31:29;;;;;;;11.23;6.03;;;11.40;99.90;;;;;;6151963;23;20370;-83
2022/01/01 23:33:59;;;;;;;14.15;6.57;;;11.20;99.90;;;;;;6152831;23;20014;-84